KEPH/EPH METAR and TAF weather

Enter ICAO airport designator
Station Type Date Time Source
KEPH METAR 2020/01/24 20:53 UTC NOAA

KEPH 242053Z AUTO 00000KT 5SM BR OVC003 04/04 A2994 RMK AO2 SLP147 T00390039 58001


Station Type Date Time Source
KEPH Decoded METAR 2020/01/24 20:53 UTC NOAA

EPHRATA MUNICIPAL AIRPORT, WA, United States (KEPH) 47-18N 119-31W 383M
Jan 24, 2020 - 03:53 PM EST / 2020.01.24 2053 UTC
Wind: Calm:0
Visibility: 5 mile(s):0
Sky conditions: overcast
Weather: mist
Temperature: 39.0 F (3.9 C)
Dew Point: 39.0 F (3.9 C)
Relative Humidity: 100%
Pressure (altimeter): 29.94 in. Hg (1013 hPa)
Pressure tendency: 0.00 inches (0.1 hPa) lower than three hours ago
ob: KEPH 242053Z AUTO 00000KT 5SM BR OVC003 04/04 A2994 RMK AO2 SLP147 T00390039 58001
cycle: 21

Station Type Date Time Source
KEPH TAF UTC NOAA

Error!

Example: see airport list